Time;durP1;ratioP1;P1;durP2;ratioP2;P2;SDS_P1;SDS_P2;PMS_P1;PMS_P2;Temp;Humidity;BMP_temperature;BMP_pressure;BME280_temperature;BME280_humidity;BME280_pressure;Samples;Min_cycle;Max_cycle;Signal;HPM_P1;HPM_P2
2023/11/12 00:00:42;;;;;;;5.15;1.30;;;;;;;6.31;76.38;93340.13;4888961;29;20229;-74
2023/11/12 00:03:07;;;;;;;5.22;1.55;;;;;;;6.31;76.29;93329.53;4891133;29;20073;-73
2023/11/12 00:05:33;;;;;;;2.05;1.00;;;;;;;6.33;76.08;93346.72;4891251;29;20033;-73
2023/11/12 00:07:58;;;;;;;2.75;1.10;;;;;;;6.19;75.80;93338.03;4891252;29;20093;-73
2023/11/12 00:10:24;;;;;;;1.23;0.80;;;;;;;6.11;76.00;93341.38;4890020;29;20032;-73
2023/11/12 00:12:50;;;;;;;2.25;1.10;;;;;;;6.10;76.04;93345.09;4890987;29;20045;-73
2023/11/12 00:15:15;;;;;;;2.95;1.35;;;;;;;6.08;76.13;93339.31;4891145;29;20326;-73
2023/11/12 00:17:42;;;;;;;4.68;1.20;;;;;;;6.09;76.12;93344.31;4891093;29;20025;-73
2023/11/12 00:20:12;;;;;;;2.20;1.17;;;;;;;6.09;76.03;93352.25;4891019;29;20032;-73
2023/11/12 00:22:43;;;;;;;2.70;1.45;;;;;;;6.11;76.10;93347.44;4890785;29;20029;-73
2023/11/12 00:25:12;;;;;;;4.97;1.65;;;;;;;6.13;76.03;93349.78;4890928;29;20073;-73
2023/11/12 00:27:41;;;;;;;6.10;1.98;;;;;;;6.13;75.87;93339.97;4891010;29;20048;-73
2023/11/12 00:30:07;;;;;;;6.78;2.15;;;;;;;6.11;75.90;93341.38;4890859;29;20100;-73
2023/11/12 00:32:33;;;;;;;8.73;2.30;;;;;;;6.11;75.82;93339.50;4890588;29;20044;-73
2023/11/12 00:34:58;;;;;;;4.82;1.45;;;;;;;6.07;75.58;93332.47;4890660;29;20024;-73
2023/11/12 00:37:24;;;;;;;4.60;2.00;;;;;;;6.01;75.79;93337.06;4890815;29;20040;-73
2023/11/12 00:39:49;;;;;;;3.85;1.88;;;;;;;5.86;75.99;93340.00;4890684;29;20376;-73
2023/11/12 00:42:15;;;;;;;3.58;1.80;;;;;;;5.87;76.02;93334.41;4890676;29;20073;-73
2023/11/12 00:44:40;;;;;;;7.20;2.15;;;;;;;5.83;76.37;93328.91;4890446;29;20200;-73
2023/11/12 00:47:06;;;;;;;4.78;1.70;;;;;;;5.80;76.48;93336.66;4890342;29;20319;-73
2023/11/12 00:49:31;;;;;;;6.22;2.33;;;;;;;5.77;76.67;93322.16;4890616;29;20230;-75
2023/11/12 00:51:56;;;;;;;4.00;2.10;;;;;;;5.74;77.28;93328.06;4890301;29;20025;-74
2023/11/12 00:54:22;;;;;;;6.15;2.20;;;;;;;5.76;76.90;93325.91;4889033;29;20055;-74
2023/11/12 00:56:47;;;;;;;5.45;2.42;;;;;;;5.73;76.87;93323.84;4890195;29;20032;-73
2023/11/12 00:59:13;;;;;;;8.38;2.40;;;;;;;5.71;76.82;93326.00;4890327;29;20060;-73
2023/11/12 01:01:39;;;;;;;3.75;1.98;;;;;;;5.68;76.89;93326.59;4889042;29;20230;-73
2023/11/12 01:04:05;;;;;;;6.80;3.00;;;;;;;5.63;76.78;93319.53;4890241;29;20025;-73
2023/11/12 01:06:30;;;;;;;7.82;2.53;;;;;;;5.55;77.22;93309.66;4890368;29;20060;-73
2023/11/12 01:08:56;;;;;;;5.90;2.13;;;;;;;5.46;77.52;93316.72;4890028;29;20033;-73
2023/11/12 01:11:21;;;;;;;6.18;2.08;;;;;;;5.43;77.66;93320.72;4889808;29;20108;-73
2023/11/12 01:13:46;;;;;;;6.75;2.20;;;;;;;5.37;78.02;93308.69;4888870;29;20096;-73
2023/11/12 01:16:12;;;;;;;3.50;1.88;;;;;;;5.34;78.11;93322.47;4889989;29;20025;-73
2023/11/12 01:18:40;;;;;;;4.68;2.13;;;;;;;5.34;77.98;93321.69;4889855;29;20215;-73
2023/11/12 01:21:06;;;;;;;4.57;1.80;;;;;;;5.34;77.94;93330.41;4889870;29;20031;-73
2023/11/12 01:23:31;;;;;;;4.45;1.85;;;;;;;5.37;77.85;93326.38;4890000;29;20045;-73
2023/11/12 01:25:57;;;;;;;5.22;2.00;;;;;;;5.34;77.55;93321.69;4889830;29;20025;-73
2023/11/12 01:28:23;;;;;;;5.03;2.38;;;;;;;5.32;77.79;93332.56;4889732;29;20028;-73
2023/11/12 01:30:49;;;;;;;6.88;2.17;;;;;;;5.32;78.04;93315.94;4889487;29;20379;-73
2023/11/12 01:33:15;;;;;;;6.60;2.85;;;;;;;5.29;77.70;93327.88;4889722;29;20371;-74
2023/11/12 01:35:40;;;;;;;12.15;3.03;;;;;;;5.27;77.44;93332.66;4889696;29;20029;-73
2023/11/12 01:38:07;;;;;;;7.13;2.70;;;;;;;5.21;77.64;93341.72;4889670;29;20227;-73
2023/11/12 01:40:37;;;;;;;5.75;3.05;;;;;;;5.16;77.75;93334.69;4889587;29;20093;-73
2023/11/12 01:43:02;;;;;;;11.38;4.00;;;;;;;5.12;78.10;93323.13;4889524;29;20021;-73
2023/11/12 01:45:28;;;;;;;6.65;2.83;;;;;;;5.09;78.48;93322.94;4889385;29;20056;-73
2023/11/12 01:47:54;;;;;;;9.05;3.17;;;;;;;5.11;78.64;93320.78;4889474;29;20349;-73
2023/11/12 01:50:20;;;;;;;8.23;2.65;;;;;;;5.07;78.51;93320.59;4889218;29;20231;-73
2023/11/12 01:52:47;;;;;;;6.55;2.50;;;;;;;5.04;78.70;93315.88;4889154;29;20048;-74
2023/11/12 01:55:13;;;;;;;8.82;3.20;;;;;;;5.05;79.24;93312.19;4889176;29;20040;-73
2023/11/12 01:57:41;;;;;;;7.97;3.17;;;;;;;5.05;78.91;93314.81;4889241;29;20029;-73
2023/11/12 02:00:11;;;;;;;7.65;3.72;;;;;;;5.00;79.09;93331.53;4889287;29;20268;-73
2023/11/12 02:02:39;;;;;;;8.00;3.60;;;;;;;5.00;79.13;93330.75;4888120;29;20311;-74
2023/11/12 02:05:06;;;;;;;6.28;3.28;;;;;;;5.03;79.09;93319.63;4889217;29;20017;-74
2023/11/12 02:07:34;;;;;;;11.98;3.03;;;;;;;5.03;78.89;93320.38;4889460;29;20047;-74
2023/11/12 02:10:09;;;;;;;8.02;3.63;;;;;;;5.07;78.83;93325.88;4889293;29;20081;-74
2023/11/12 02:12:37;;;;;;;8.30;3.30;;;;;;;5.08;78.74;93331.94;4889203;29;20204;-74
2023/11/12 02:15:03;;;;;;;9.88;3.30;;;;;;;5.02;78.49;93321.44;4889148;29;20021;-74
2023/11/12 02:17:31;;;;;;;11.90;3.33;;;;;;;4.96;78.77;93327.91;4887713;29;20033;-74
2023/11/12 02:20:07;;;;;;;6.95;2.80;;;;;;;5.01;78.97;93317.25;4888818;29;20024;-74
2023/11/12 02:22:34;;;;;;;8.23;2.92;;;;;;;4.95;78.78;93325.56;4888792;29;20280;-74
2023/11/12 02:25:09;;;;;;;4.50;2.42;;;;;;;4.92;79.13;93329.53;4887400;29;20390;-74
2023/11/12 02:27:34;;;;;;;3.83;2.30;;;;;;;4.90;79.14;93333.56;4888830;29;20032;-74
2023/11/12 02:30:00;;;;;;;4.07;1.75;;;;;;;4.93;79.32;93325.06;4888884;29;20032;-74
2023/11/12 02:32:33;;;;;;;6.30;2.50;;;;;;;4.97;79.01;93331.34;4888891;29;20096;-74
2023/11/12 02:35:00;;;;;;;4.47;1.92;;;;;;;4.99;79.12;93332.59;4888873;29;20031;-74
2023/11/12 02:37:25;;;;;;;9.60;2.45;;;;;;;4.99;78.89;93314.13;4888541;29;20032;-74
2023/11/12 02:39:51;;;;;;;5.30;2.50;;;;;;;4.99;78.54;93332.59;4888762;29;20051;-74
2023/11/12 02:42:18;;;;;;;3.97;2.30;;;;;;;4.95;78.36;93326.34;4888705;29;20184;-74
2023/11/12 02:44:44;;;;;;;4.13;2.10;;;;;;;4.93;78.63;93331.13;4888577;29;20028;-74
2023/11/12 02:47:09;;;;;;;4.65;2.10;;;;;;;4.92;78.64;93328.78;4888617;29;20020;-74
2023/11/12 02:50:12;;;;;;;5.68;1.77;;;;;;;4.85;79.07;93323.88;4887382;29;20275;-74
2023/11/12 02:52:38;;;;;;;3.63;1.50;;;;;;;4.84;79.29;93322.28;4888229;29;20044;-73
2023/11/12 02:55:05;;;;;;;6.07;2.45;;;;;;;4.87;79.10;93327.00;4888720;29;20095;-74
2023/11/12 02:57:30;;;;;;;11.05;2.10;;;;;;;4.82;79.14;93324.44;4888642;29;20021;-74
2023/11/12 02:59:55;;;;;;;8.30;2.00;;;;;;;4.84;79.13;93330.22;4888520;29;20212;-74
2023/11/12 03:02:22;;;;;;;7.53;1.95;;;;;;;4.87;79.03;93334.94;4888398;29;20028;-74
2023/11/12 03:04:47;;;;;;;3.15;1.80;;;;;;;4.86;79.17;93329.94;4888248;29;20027;-74
2023/11/12 03:07:13;;;;;;;5.00;2.00;;;;;;;4.89;78.76;93335.44;4888501;29;20021;-74
2023/11/12 03:09:39;;;;;;;5.03;1.80;;;;;;;4.84;78.76;93335.50;4888446;29;20032;-74
2023/11/12 03:12:05;;;;;;;3.33;1.50;;;;;;;4.87;78.82;93332.28;4888592;29;20036;-74
2023/11/12 03:14:31;;;;;;;3.17;1.70;;;;;;;4.88;78.70;93339.13;4888297;29;20033;-73
2023/11/12 03:16:56;;;;;;;4.15;1.50;;;;;;;4.88;78.49;93336.47;4888324;29;20029;-73
2023/11/12 03:19:23;;;;;;;3.28;1.70;;;;;;;4.87;78.30;93348.13;4888206;29;20056;-73
2023/11/12 03:21:55;;;;;;;8.77;1.67;;;;;;;4.82;78.18;93343.72;4888338;29;20051;-73
2023/11/12 03:24:23;;;;;;;2.85;1.52;;;;;;;4.80;78.34;93348.50;4888014;29;20268;-73
2023/11/12 03:26:55;;;;;;;3.63;1.73;;;;;;;4.78;78.54;93355.94;4888315;29;20035;-74
2023/11/12 03:29:23;;;;;;;3.47;1.55;;;;;;;4.73;78.56;93363.16;4888279;29;20200;-73
2023/11/12 03:31:50;;;;;;;3.40;1.63;;;;;;;4.73;78.51;93365.78;4888174;29;20120;-73
2023/11/12 03:34:16;;;;;;;5.97;1.80;;;;;;;4.72;78.53;93375.56;4887238;29;20096;-73
2023/11/12 03:36:41;;;;;;;5.22;1.40;;;;;;;4.71;78.66;93376.63;4890201;29;20215;-73
2023/11/12 03:39:08;;;;;;;5.35;1.80;;;;;;;4.71;78.71;93375.84;4889972;29;20025;-73
2023/11/12 03:41:34;;;;;;;6.68;2.20;;;;;;;4.71;78.37;93387.19;4891644;29;20052;-73
2023/11/12 03:44:00;;;;;;;2.63;1.25;;;;;;;4.74;78.55;93377.91;4891508;29;20021;-74
2023/11/12 03:46:25;;;;;;;4.13;2.13;;;;;;;4.70;78.35;93374.28;4891467;29;20052;-74
2023/11/12 03:48:51;;;;;;;3.72;1.90;;;;;;;4.72;78.27;93375.56;4891663;29;20025;-74
2023/11/12 03:51:16;;;;;;;4.82;2.40;;;;;;;4.73;78.18;93371.06;4891414;29;20088;-74
2023/11/12 03:53:42;;;;;;;5.22;1.83;;;;;;;4.72;78.22;93380.03;4891280;29;20112;-73
2023/11/12 03:56:07;;;;;;;4.18;1.55;;;;;;;4.71;78.36;93381.91;4891343;29;20036;-73
2023/11/12 03:58:35;;;;;;;3.50;1.42;;;;;;;4.76;78.01;93367.84;4891550;29;20032;-73
2023/11/12 04:01:00;;;;;;;5.63;1.30;;;;;;;4.71;78.22;93370.56;4891605;29;20069;-73
2023/11/12 04:03:27;;;;;;;4.75;1.58;;;;;;;4.72;77.91;93372.13;4891321;29;20319;-73
2023/11/12 04:05:53;;;;;;;4.40;1.60;;;;;;;4.69;77.95;93365.56;4891149;29;20025;-73
2023/11/12 04:08:18;;;;;;;3.40;1.40;;;;;;;4.66;77.96;93370.63;4891175;29;20149;-73
2023/11/12 04:10:44;;;;;;;3.15;1.23;;;;;;;4.67;77.89;93365.06;4891169;29;20104;-72
2023/11/12 04:13:10;;;;;;;3.17;1.27;;;;;;;4.69;77.84;93372.72;4891094;29;20029;-72
2023/11/12 04:15:36;;;;;;;3.72;1.25;;;;;;;4.69;77.67;93368.22;4891246;29;20112;-72
2023/11/12 04:18:02;;;;;;;4.95;1.85;;;;;;;4.68;77.25;93382.50;4891075;29;20073;-72
2023/11/12 04:20:32;;;;;;;2.47;1.10;;;;;;;4.63;77.10;93383.34;4890838;29;20025;-72
2023/11/12 04:22:58;;;;;;;2.08;1.10;;;;;;;4.61;77.32;93371.50;4890955;29;20032;-72
2023/11/12 04:25:24;;;;;;;2.20;1.08;;;;;;;4.59;77.25;93369.16;4890905;29;20346;-73
2023/11/12 04:27:52;;;;;;;2.58;1.00;;;;;;;4.60;77.57;93377.88;4890848;29;20028;-73
2023/11/12 04:30:18;;;;;;;6.97;1.42;;;;;;;4.56;77.48;93384.75;4889736;29;20323;-72
2023/11/12 04:32:44;;;;;;;2.65;1.30;;;;;;;4.57;77.38;93395.03;4890776;29;20048;-74
2023/11/12 04:35:11;;;;;;;4.13;1.38;;;;;;;4.58;77.27;93383.44;4889491;29;20041;-74
2023/11/12 04:37:40;;;;;;;2.85;1.42;;;;;;;4.62;77.28;93400.25;4890692;29;20025;-74
2023/11/12 04:40:09;;;;;;;5.50;1.50;;;;;;;4.64;77.42;93399.97;4890943;29;20235;-74
2023/11/12 04:42:35;;;;;;;2.58;1.30;;;;;;;4.63;77.25;93391.25;4889515;29;20238;-73
2023/11/12 04:45:01;;;;;;;2.70;1.15;;;;;;;4.68;77.24;93389.63;4890634;29;20025;-74
2023/11/12 04:47:26;;;;;;;3.20;1.48;;;;;;;4.72;77.26;93387.97;4889941;29;20040;-73
2023/11/12 04:49:52;;;;;;;3.75;1.52;;;;;;;4.81;77.08;93408.16;4890514;29;20032;-73
2023/11/12 04:52:18;;;;;;;3.90;1.52;;;;;;;4.79;77.25;93398.97;4890521;29;20031;-73
2023/11/12 04:54:47;;;;;;;3.90;1.70;;;;;;;4.82;77.12;93404.47;4890275;29;20221;-74
2023/11/12 04:57:13;;;;;;;5.75;1.75;;;;;;;4.85;77.03;93397.81;4890321;29;20025;-74
2023/11/12 04:59:40;;;;;;;4.45;1.80;;;;;;;4.90;77.02;93404.88;4890233;29;20025;-74
2023/11/12 05:02:06;;;;;;;5.25;1.63;;;;;;;4.94;76.75;93404.00;4889477;29;20036;-74
2023/11/12 05:04:32;;;;;;;6.22;1.42;;;;;;;4.94;76.71;93406.63;4890418;29;20033;-73
2023/11/12 05:06:58;;;;;;;5.38;1.42;;;;;;;4.99;76.58;93408.44;4890401;29;20118;-73
2023/11/12 05:09:23;;;;;;;3.75;1.40;;;;;;;5.05;76.60;93417.03;4890153;29;20029;-73
2023/11/12 05:11:48;;;;;;;2.83;1.45;;;;;;;5.06;76.46;93398.25;4890245;29;20064;-73
2023/11/12 05:14:14;;;;;;;5.07;1.17;;;;;;;5.12;76.51;93385.75;4889935;29;20320;-74
2023/11/12 05:16:42;;;;;;;4.63;1.50;;;;;;;5.17;76.39;93404.97;4890095;29;20081;-73
2023/11/12 05:19:08;;;;;;;4.97;1.55;;;;;;;5.22;76.73;93412.00;4890018;29;20068;-74
2023/11/12 05:21:33;;;;;;;3.03;1.42;;;;;;;5.20;76.77;93403.59;4889995;29;20021;-73
2023/11/12 05:23:59;;;;;;;31.80;8.95;;;;;;;5.22;76.66;93414.66;4889961;29;20024;-73
2023/11/12 05:26:24;;;;;;;40.90;11.88;;;;;;;5.28;76.44;93413.50;4889740;29;20220;-74
2023/11/12 05:28:50;;;;;;;35.17;10.05;;;;;;;5.32;76.45;93432.97;4888804;29;20275;-73
2023/11/12 05:31:15;;;;;;;31.70;9.43;;;;;;;5.34;76.44;93425.53;4889764;29;20046;-74
2023/11/12 05:33:41;;;;;;;21.13;7.00;;;;;;;5.36;76.84;93426.03;4889722;29;20025;-73
2023/11/12 05:36:08;;;;;;;18.90;7.05;;;;;;;5.35;76.88;93437.69;4889705;29;20043;-73
2023/11/12 05:38:34;;;;;;;18.20;4.82;;;;;;;5.36;76.82;93435.81;4889685;29;20060;-73
2023/11/12 05:41:00;;;;;;;12.50;5.25;;;;;;;5.40;76.75;93450.81;4889595;29;20060;-73
2023/11/12 05:43:26;;;;;;;11.70;4.35;;;;;;;5.43;76.42;93447.59;4889572;29;20021;-73
2023/11/12 05:45:51;;;;;;;15.15;6.20;;;;;;;5.44;76.32;93451.03;4889639;29;20215;-73
2023/11/12 05:48:17;;;;;;;12.85;4.20;;;;;;;5.46;76.46;93458.66;4889682;29;20268;-73
2023/11/12 05:50:42;;;;;;;13.30;5.13;;;;;;;5.47;76.48;93460.22;4889466;29;20230;-73
2023/11/12 05:53:08;;;;;;;15.07;4.97;;;;;;;5.48;76.26;93477.66;4889227;29;20045;-74
2023/11/12 05:55:34;;;;;;;5.57;2.38;;;;;;;5.41;75.69;93476.19;4889454;29;20041;-73
2023/11/12 05:57:59;;;;;;;10.88;4.13;;;;;;;5.43;75.89;93492.53;4888614;29;20036;-73
2023/11/12 06:00:25;;;;;;;11.93;4.85;;;;;;;5.41;75.91;93484.09;4889330;29;20024;-73
2023/11/12 06:02:50;;;;;;;14.73;4.22;;;;;;;5.45;76.02;93494.09;4889155;29;20099;-73
2023/11/12 06:05:15;;;;;;;12.52;4.05;;;;;;;5.49;76.19;93489.78;4889331;29;20073;-74
2023/11/12 06:07:41;;;;;;;10.18;4.50;;;;;;;5.51;76.17;93488.41;4889336;29;20069;-74
2023/11/12 06:10:07;;;;;;;8.57;4.00;;;;;;;5.60;76.02;93497.28;4889206;29;20037;-74
2023/11/12 06:12:32;;;;;;;9.05;4.07;;;;;;;5.67;76.09;93504.81;4889437;29;20188;-74
2023/11/12 06:14:58;;;;;;;6.95;3.00;;;;;;;5.75;76.04;93504.16;4888811;29;20033;-74
2023/11/12 06:17:26;;;;;;;6.07;3.47;;;;;;;5.85;75.63;93515.63;4887971;29;20033;-73
2023/11/12 06:19:52;;;;;;;9.35;4.32;;;;;;;5.97;75.43;93518.63;4889139;29;20021;-74
2023/11/12 06:22:18;;;;;;;8.20;3.35;;;;;;;6.05;75.43;93525.09;4889063;29;20027;-74
2023/11/12 06:24:43;;;;;;;6.97;3.38;;;;;;;6.17;75.77;93542.06;4888955;29;20085;-73
2023/11/12 06:27:09;;;;;;;7.05;3.85;;;;;;;6.27;76.48;93545.59;4888698;29;20102;-73
2023/11/12 06:29:35;;;;;;;6.97;3.38;;;;;;;6.32;76.42;93537.56;4889184;29;20067;-74
2023/11/12 06:32:01;;;;;;;10.32;3.45;;;;;;;6.40;76.06;93544.81;4888935;29;20053;-74
2023/11/12 06:34:27;;;;;;;6.30;2.92;;;;;;;6.48;75.43;93530.91;4888688;29;20029;-74
2023/11/12 06:36:52;;;;;;;4.38;2.08;;;;;;;6.58;74.52;93533.34;4888723;29;20121;-74
2023/11/12 06:39:18;;;;;;;9.60;3.65;;;;;;;6.68;73.99;93537.66;4888802;29;20306;-74
2023/11/12 06:41:43;;;;;;;8.43;4.40;;;;;;;6.79;73.54;93530.28;4888728;29;20025;-73
2023/11/12 06:44:09;;;;;;;13.02;5.55;;;;;;;6.88;73.20;93539.13;4888689;29;20021;-74
2023/11/12 06:46:36;;;;;;;15.45;6.78;;;;;;;6.97;72.84;93544.50;4888811;29;20025;-74
2023/11/12 06:49:02;;;;;;;16.60;7.40;;;;;;;7.06;72.56;93541.91;4889001;29;20095;-78
2023/11/12 06:51:27;;;;;;;18.35;8.45;;;;;;;7.15;72.45;93551.50;4888682;29;20029;-78
2023/11/12 06:53:53;;;;;;;20.90;8.05;;;;;;;7.28;72.39;93565.03;4888418;29;20365;-78
2023/11/12 06:56:18;;;;;;;16.40;7.45;;;;;;;7.40;71.97;93567.94;4888326;29;20219;-78
2023/11/12 06:58:44;;;;;;;22.02;7.20;;;;;;;7.50;72.14;93554.44;4888692;29;20225;-78
2023/11/12 07:01:09;;;;;;;18.60;6.95;;;;;;;7.62;72.06;93564.53;4888741;29;20029;-77
2023/11/12 07:03:35;;;;;;;16.02;7.70;;;;;;;7.72;71.82;93572.25;4888668;29;20272;-77
2023/11/12 07:06:00;;;;;;;18.98;7.10;;;;;;;7.82;72.62;93569.34;4888741;29;20052;-77
2023/11/12 07:08:27;;;;;;;11.73;6.78;;;;;;;7.90;72.25;93575.03;4888415;29;20125;-78
2023/11/12 07:10:53;;;;;;;16.48;5.10;;;;;;;7.99;71.44;93578.50;4891645;29;20112;-78
2023/11/12 07:13:19;;;;;;;13.65;4.43;;;;;;;8.10;70.19;93581.66;4892356;29;20053;-78
2023/11/12 07:15:44;;;;;;;7.20;4.18;;;;;;;8.21;69.15;93583.78;4892205;29;20036;-78
2023/11/12 07:18:13;;;;;;;13.30;4.30;;;;;;;8.30;68.26;93575.84;4890802;29;20033;-77
2023/11/12 07:20:39;;;;;;;4.75;2.42;;;;;;;8.41;67.69;93581.72;4892095;29;20035;-77
2023/11/12 07:23:04;;;;;;;6.22;1.90;;;;;;;8.53;66.27;93583.78;4892074;29;20029;-77
2023/11/12 07:25:30;;;;;;;7.45;1.92;;;;;;;8.66;65.51;93592.75;4891883;29;20208;-77
2023/11/12 07:27:56;;;;;;;5.53;2.20;;;;;;;8.77;65.31;93586.88;4890612;29;20424;-78
2023/11/12 07:30:22;;;;;;;4.97;2.03;;;;;;;8.89;65.15;93593.47;4891903;29;20077;-78
2023/11/12 07:32:47;;;;;;;7.55;2.88;;;;;;;9.00;63.89;93589.44;4891706;29;20375;-78
2023/11/12 07:35:13;;;;;;;7.70;2.92;;;;;;;9.10;63.03;93585.69;4891691;29;20021;-78
2023/11/12 07:37:41;;;;;;;8.68;3.13;;;;;;;9.21;63.10;93585.09;4891630;29;20036;-80
2023/11/12 07:40:11;;;;;;;8.45;2.78;;;;;;;9.35;62.35;93582.28;4891959;29;20037;-77
2023/11/12 07:42:40;;;;;;;4.53;1.38;;;;;;;9.46;61.20;93601.38;4891597;29;20061;-76
2023/11/12 07:45:10;;;;;;;3.50;1.33;;;;;;;9.49;59.84;93597.34;4891791;29;20088;-78
2023/11/12 07:47:36;;;;;;;12.68;2.55;;;;;;;9.54;60.32;93595.28;4892104;29;20231;-75
2023/11/12 07:50:03;;;;;;;17.33;4.60;;;;;;;9.62;60.26;93596.38;4891726;29;20052;-74
2023/11/12 07:52:29;;;;;;;11.13;3.50;;;;;;;9.62;59.92;93594.50;4891538;29;20036;-75
2023/11/12 07:54:54;;;;;;;8.18;2.35;;;;;;;9.69;60.43;93591.41;4891473;29;20192;-74
2023/11/12 07:57:20;;;;;;;3.53;1.27;;;;;;;9.71;60.61;93575.09;4891421;29;20021;-78
2023/11/12 07:59:45;;;;;;;3.08;1.35;;;;;;;9.71;61.11;93565.25;4891683;29;20037;-78
2023/11/12 08:02:11;;;;;;;6.65;1.70;;;;;;;9.62;61.13;93565.22;4891661;29;20028;-77
2023/11/12 08:04:37;;;;;;;4.72;1.80;;;;;;;9.53;62.55;93567.13;4891549;29;20056;-78
2023/11/12 08:07:02;;;;;;;6.75;2.10;;;;;;;9.49;66.09;93568.06;4891231;29;20203;-78
2023/11/12 08:09:28;;;;;;;6.32;2.15;;;;;;;9.40;63.25;93563.53;4891232;29;20138;-78
2023/11/12 08:11:53;;;;;;;6.97;2.53;;;;;;;9.27;63.88;93563.69;4891321;29;20032;-78
2023/11/12 08:14:19;;;;;;;5.03;2.00;;;;;;;9.12;64.33;93583.50;4891208;29;20077;-78
2023/11/12 08:16:44;;;;;;;4.45;1.95;;;;;;;8.91;65.58;93578.75;4890993;29;20032;-78
2023/11/12 08:19:10;;;;;;;9.25;2.63;;;;;;;8.84;67.56;93587.19;4890795;29;20025;-78
2023/11/12 08:21:35;;;;;;;5.70;2.20;;;;;;;8.83;66.95;93592.81;4890539;29;20097;-78
2023/11/12 08:24:01;;;;;;;6.65;2.47;;;;;;;8.76;66.11;93590.59;4889869;29;20208;-78
2023/11/12 08:26:29;;;;;;;11.15;3.28;;;;;;;8.64;66.64;93598.38;4891136;29;20117;-78
2023/11/12 08:28:57;;;;;;;7.30;2.60;;;;;;;8.62;66.35;93601.34;4890855;29;20025;-78
2023/11/12 08:31:23;;;;;;;7.38;2.25;;;;;;;8.57;67.09;93614.75;4890996;29;20025;-78
2023/11/12 08:33:49;;;;;;;4.45;2.33;;;;;;;8.43;66.75;93601.56;4890788;29;20122;-78
2023/11/12 08:36:14;;;;;;;7.80;3.47;;;;;;;8.44;67.70;93612.97;4890838;29;20342;-78
2023/11/12 08:38:40;;;;;;;6.93;2.47;;;;;;;8.32;66.51;93610.06;4889491;29;20276;-78
2023/11/12 08:41:07;;;;;;;8.15;2.33;;;;;;;8.31;67.16;93605.84;4890668;29;20021;-77
2023/11/12 08:43:33;;;;;;;5.97;2.20;;;;;;;8.31;67.02;93603.19;4890526;29;20085;-77
2023/11/12 08:45:59;;;;;;;5.93;2.30;;;;;;;8.29;65.63;93605.38;4890473;29;20099;-78
2023/11/12 08:48:31;;;;;;;6.72;2.05;;;;;;;8.27;65.07;93599.59;4890391;29;20032;-77
2023/11/12 08:50:58;;;;;;;3.25;1.80;;;;;;;8.34;65.03;93605.22;4890465;29;20230;-77
2023/11/12 08:53:23;;;;;;;4.38;1.60;;;;;;;8.40;65.21;93612.75;4888840;29;20109;-78
2023/11/12 08:55:49;;;;;;;7.20;1.95;;;;;;;8.50;64.04;93608.31;4889009;29;20033;-80
2023/11/12 08:58:15;;;;;;;4.07;1.40;;;;;;;8.60;63.71;93605.41;4890532;29;20316;-79
2023/11/12 09:00:40;;;;;;;3.90;1.30;;;;;;;8.74;63.24;93606.06;4889276;29;20033;-77
2023/11/12 09:03:06;;;;;;;2.35;1.35;;;;;;;8.92;62.52;93609.59;4889252;29;20029;-78
2023/11/12 09:05:31;;;;;;;7.68;1.98;;;;;;;9.07;62.71;93608.34;4890252;29;20153;-77
2023/11/12 09:07:57;;;;;;;4.22;1.83;;;;;;;9.20;61.53;93606.69;4889921;29;20025;-77
2023/11/12 09:10:22;;;;;;;4.35;1.42;;;;;;;9.27;61.03;93611.53;4889695;29;20085;-77
2023/11/12 09:12:48;;;;;;;8.82;1.60;;;;;;;9.36;60.73;93610.47;4889698;29;20040;-77
2023/11/12 09:15:13;;;;;;;4.43;1.73;;;;;;;9.47;60.95;93607.50;4889598;29;20099;-77
2023/11/12 09:17:38;;;;;;;4.68;1.70;;;;;;;9.57;61.42;93600.00;4889376;29;20081;-77
2023/11/12 09:20:05;;;;;;;6.78;2.53;;;;;;;9.73;61.35;93602.97;4889892;29;20025;-77
2023/11/12 09:22:31;;;;;;;6.22;1.75;;;;;;;9.87;61.08;93592.19;4889801;29;20031;-77
2023/11/12 09:24:57;;;;;;;4.15;1.38;;;;;;;10.02;60.89;93590.91;4889899;29;20196;-77
2023/11/12 09:27:22;;;;;;;9.80;1.70;;;;;;;10.16;60.35;93578.19;4888658;29;20035;-77
2023/11/12 09:29:48;;;;;;;5.40;2.13;;;;;;;10.32;59.42;93589.16;4889896;29;20021;-78
2023/11/12 09:32:14;;;;;;;7.28;1.80;;;;;;;10.44;59.20;93583.13;4889689;29;20078;-81
2023/11/12 09:34:40;;;;;;;5.15;1.88;;;;;;;10.51;58.59;93586.09;4889861;29;20260;-79
2023/11/12 09:37:05;;;;;;;4.32;1.85;;;;;;;10.56;56.49;93582.47;4888954;29;20025;-79
2023/11/12 09:39:32;;;;;;;4.78;2.10;;;;;;;10.57;56.45;93576.84;4889747;29;20021;-79
2023/11/12 09:42:00;;;;;;;4.60;1.73;;;;;;;10.63;56.88;93575.56;4888480;29;20238;-79
2023/11/12 09:44:26;;;;;;;11.50;3.03;;;;;;;10.70;57.01;93567.06;4889728;29;20029;-79
2023/11/12 09:47:25;;;;;;;8.80;2.50;;;;;;;10.83;57.64;93563.41;4889538;29;20037;-79
2023/11/12 09:49:51;;;;;;;10.48;3.40;;;;;;;10.96;57.26;93558.94;4885415;29;20040;-79
2023/11/12 09:52:22;;;;;;;6.95;2.80;;;;;;;11.09;57.11;93559.03;4889285;29;20063;-79
2023/11/12 09:54:49;;;;;;;10.90;3.40;;;;;;;11.17;57.11;93559.00;4889312;29;20124;-78
2023/11/12 09:57:15;;;;;;;11.98;3.78;;;;;;;11.22;54.34;93563.34;4889355;29;20063;-79
2023/11/12 09:59:40;;;;;;;8.75;3.42;;;;;;;11.10;54.53;93555.28;4889456;29;20335;-78
2023/11/12 10:02:08;;;;;;;15.10;3.67;;;;;;;10.97;55.51;93568.50;4889616;29;20021;-78
2023/11/12 10:04:33;;;;;;;11.52;4.13;;;;;;;10.89;55.20;93565.88;4889231;29;20017;-78
2023/11/12 10:06:59;;;;;;;10.60;4.18;;;;;;;10.81;56.36;93565.59;4889260;29;20021;-78
2023/11/12 10:09:28;;;;;;;13.52;4.32;;;;;;;10.86;57.22;93566.53;4888917;29;20032;-79
2023/11/12 10:12:03;;;;;;;15.13;5.45;;;;;;;10.83;57.14;93571.41;4889159;29;20073;-79
2023/11/12 10:14:28;;;;;;;16.10;4.35;;;;;;;10.82;55.78;93567.16;4889148;29;20032;-79
2023/11/12 10:17:14;;;;;;;10.52;3.88;;;;;;;10.76;55.66;93568.44;4889088;29;20028;-79
2023/11/12 10:19:54;;;;;;;8.85;3.47;;;;;;;10.74;55.59;93575.22;4888799;29;20032;-79
2023/11/12 10:22:36;;;;;;;8.05;3.65;;;;;;;10.79;56.29;93575.03;4889169;29;20073;-80
2023/11/12 10:25:02;;;;;;;17.15;4.20;;;;;;;10.87;56.13;93582.22;4889019;29;20021;-79
2023/11/12 10:27:28;;;;;;;8.82;3.80;;;;;;;10.96;55.74;93582.94;4888989;29;20218;-79
2023/11/12 10:29:54;;;;;;;15.68;4.38;;;;;;;11.07;55.08;93588.69;4889162;29;20048;-78
2023/11/12 10:32:26;;;;;;;12.02;5.30;;;;;;;11.07;55.89;93594.00;4888784;29;20331;-79
2023/11/12 10:34:52;;;;;;;15.25;5.90;;;;;;;11.02;56.70;93594.97;4888574;29;20036;-79
2023/11/12 10:37:19;;;;;;;18.38;5.35;;;;;;;11.06;56.43;93595.13;4889182;29;20060;-79
2023/11/12 10:39:46;;;;;;;11.70;5.10;;;;;;;11.03;56.71;93588.56;4888804;29;20035;-79
2023/11/12 10:42:15;;;;;;;14.55;5.50;;;;;;;11.06;57.88;93594.34;4888823;29;20350;-79
2023/11/12 10:44:41;;;;;;;14.02;4.97;;;;;;;11.09;58.60;93599.03;4888173;29;20052;-79
2023/11/12 10:47:10;;;;;;;16.60;4.70;;;;;;;11.03;57.87;93604.56;4888757;29;20033;-79
2023/11/12 10:49:39;;;;;;;14.07;4.85;;;;;;;10.94;57.41;93606.47;4888977;29;20033;-79
2023/11/12 10:52:08;;;;;;;14.23;4.78;;;;;;;10.91;57.29;93606.34;4888825;29;20053;-80
2023/11/12 10:54:34;;;;;;;15.50;5.80;;;;;;;10.79;58.63;93605.13;4888559;29;20061;-80
2023/11/12 10:57:01;;;;;;;12.32;5.72;;;;;;;10.60;60.34;93608.19;4887770;29;20218;-79
2023/11/12 10:59:28;;;;;;;12.52;6.05;;;;;;;10.46;61.15;93615.56;4888426;29;20506;-80
2023/11/12 11:01:55;;;;;;;20.05;7.55;;;;;;;10.34;62.10;93615.44;4888577;29;20025;-79
2023/11/12 11:04:22;;;;;;;12.52;5.47;;;;;;;10.23;64.00;93617.66;4886995;29;20040;-78
2023/11/12 11:06:48;;;;;;;12.43;5.95;;;;;;;10.13;63.57;93613.41;4888543;29;20084;-78
2023/11/12 11:09:14;;;;;;;12.35;4.90;;;;;;;9.97;62.97;93613.16;4888650;29;20037;-80
2023/11/12 11:11:40;;;;;;;8.43;4.10;;;;;;;9.88;63.44;93615.03;4888372;29;20029;-80
2023/11/12 11:14:23;;;;;;;12.45;4.30;;;;;;;9.77;61.61;93611.09;4888305;29;20323;-81
2023/11/12 11:16:50;;;;;;;5.80;2.45;;;;;;;9.71;61.03;93615.81;4887247;29;20041;-83
2023/11/12 11:19:16;;;;;;;7.40;2.47;;;;;;;9.71;60.32;93623.81;4887202;29;20036;-78
2023/11/12 11:21:41;;;;;;;8.80;3.13;;;;;;;9.69;60.78;93622.53;4888309;29;20021;-78
2023/11/12 11:24:09;;;;;;;9.80;2.80;;;;;;;9.66;61.63;93626.59;4888398;29;20239;-78
2023/11/12 11:26:39;;;;;;;8.35;3.55;;;;;;;9.66;62.11;93634.59;4887465;29;20036;-80
2023/11/12 11:29:04;;;;;;;9.18;4.03;;;;;;;9.69;61.69;93622.53;4888612;29;20036;-84
2023/11/12 11:31:37;;;;;;;7.68;4.30;;;;;;;9.76;61.82;93625.53;4887761;29;20029;-88
2023/11/12 11:34:05;;;;;;;11.32;4.60;;;;;;;9.76;62.53;93623.63;4890166;29;20037;-87
2023/11/12 11:36:31;;;;;;;11.35;5.50;;;;;;;9.77;64.13;93625.22;4889394;29;20212;-85